createdAt,value
2024-03-12T00:00:09.643Z,83.5
2024-03-12T00:01:15.920Z,83.5
2024-03-12T00:02:22.192Z,83.5
2024-03-12T00:03:28.457Z,83.5
2024-03-12T00:04:34.726Z,83.5
2024-03-12T00:05:41.001Z,83.5
2024-03-12T00:06:47.280Z,83.5
2024-03-12T00:07:53.537Z,83.5
2024-03-12T00:08:59.865Z,83.5
2024-03-12T00:10:06.096Z,84
2024-03-12T00:11:12.371Z,84
2024-03-12T00:12:17.709Z,84
2024-03-12T00:13:23.917Z,84
2024-03-12T00:14:30.186Z,84
2024-03-12T00:15:36.473Z,84
2024-03-12T00:16:42.735Z,84
2024-03-12T00:17:49.007Z,84
2024-03-12T00:18:55.275Z,84
2024-03-12T00:20:01.546Z,83.5
2024-03-12T00:21:07.811Z,83.5
2024-03-12T00:22:14.090Z,83.5
2024-03-12T00:23:20.363Z,84
2024-03-12T00:24:26.638Z,84
2024-03-12T00:25:32.908Z,84
2024-03-12T00:26:38.198Z,84
2024-03-12T00:27:44.474Z,84
2024-03-12T00:28:50.734Z,84
2024-03-12T00:29:57.019Z,84
2024-03-12T00:31:03.293Z,84
2024-03-12T00:32:09.642Z,84.5
2024-03-12T00:33:15.832Z,84.5
2024-03-12T00:34:22.100Z,84.5
2024-03-12T00:35:28.444Z,84.5
2024-03-12T00:36:34.646Z,84.5
2024-03-12T00:37:40.920Z,84.5
2024-03-12T00:38:47.192Z,84.5
2024-03-12T00:39:53.461Z,84.5
2024-03-12T00:40:58.744Z,84.5
2024-03-12T00:42:05.017Z,84.5
2024-03-12T00:43:11.289Z,84.5
2024-03-12T00:44:17.569Z,84.5
2024-03-12T00:45:23.834Z,84.5
2024-03-12T00:46:30.104Z,84.5
2024-03-12T00:47:36.367Z,84.5
2024-03-12T00:48:42.654Z,85
2024-03-12T00:49:48.924Z,85
2024-03-12T00:50:55.189Z,85
2024-03-12T00:52:01.484Z,85
2024-03-12T00:53:07.837Z,85
2024-03-12T00:54:14.014Z,85
2024-03-12T00:55:19.293Z,85
2024-03-12T00:56:25.572Z,85
2024-03-12T00:57:31.834Z,85
2024-03-12T00:58:38.156Z,85
2024-03-12T00:59:44.385Z,85
2024-03-12T01:00:50.658Z,85
2024-03-12T01:01:56.967Z,85
2024-03-12T01:03:03.200Z,85
2024-03-12T01:04:09.525Z,85
2024-03-12T01:05:15.754Z,85
2024-03-12T01:06:22.003Z,85
2024-03-12T01:07:28.281Z,85.5
2024-03-12T01:08:34.559Z,85
2024-03-12T01:09:39.839Z,85
2024-03-12T01:10:46.111Z,85
2024-03-12T01:11:52.406Z,85
2024-03-12T01:12:58.651Z,85.5
2024-03-12T01:14:04.935Z,85.5
2024-03-12T01:15:11.193Z,85.5
2024-03-12T01:16:17.476Z,86
2024-03-12T01:17:23.736Z,85.5
2024-03-12T01:18:30.026Z,85.5
2024-03-12T01:19:36.316Z,85.5
2024-03-12T01:20:42.559Z,85.5
2024-03-12T01:21:48.831Z,86
2024-03-12T01:22:55.100Z,86
2024-03-12T01:24:00.396Z,86.5
2024-03-12T01:25:06.666Z,86
2024-03-12T01:26:12.933Z,86
2024-03-12T01:27:19.196Z,86.5
2024-03-12T01:28:25.474Z,87
2024-03-12T01:29:31.758Z,87
2024-03-12T01:30:38.024Z,87
2024-03-12T01:31:44.286Z,87
2024-03-12T01:32:50.564Z,87
2024-03-12T01:33:56.836Z,87
2024-03-12T01:35:03.114Z,87
2024-03-12T01:36:09.372Z,87.5
2024-03-12T01:37:15.655Z,88
2024-03-12T01:38:20.950Z,88
2024-03-12T01:39:27.240Z,88
2024-03-12T01:40:33.482Z,88.5
2024-03-12T01:41:39.753Z,88.5
2024-03-12T01:42:46.032Z,88.5
2024-03-12T01:43:52.299Z,88.5
2024-03-12T01:44:58.575Z,88.5
2024-03-12T01:46:04.840Z,89
2024-03-12T01:47:11.150Z,89
2024-03-12T01:48:17.400Z,89
2024-03-12T01:49:23.655Z,89.5
2024-03-12T01:50:29.969Z,89.5
2024-03-12T01:51:36.195Z,89.5
2024-03-12T01:52:41.486Z,89.5
2024-03-12T01:53:47.763Z,89.5
2024-03-12T01:54:54.047Z,89.5
2024-03-12T01:56:00.309Z,89.5
2024-03-12T01:57:06.568Z,89
2024-03-12T01:58:12.845Z,89
2024-03-12T01:59:19.143Z,89
2024-03-12T02:00:25.399Z,89
2024-03-12T02:01:31.654Z,89
2024-03-12T02:02:37.935Z,89
2024-03-12T02:03:44.208Z,89
2024-03-12T02:04:50.483Z,89
2024-03-12T02:05:56.752Z,89.5
2024-03-12T02:07:02.037Z,89.5
2024-03-12T02:08:08.315Z,89.5
2024-03-12T02:09:14.583Z,89.5
2024-03-12T02:10:20.913Z,89.5
2024-03-12T02:11:27.128Z,90
2024-03-12T02:12:33.399Z,90
2024-03-12T02:13:39.667Z,90
2024-03-12T02:14:45.940Z,90
2024-03-12T02:15:52.217Z,90
2024-03-12T02:16:58.486Z,90
2024-03-12T02:18:04.785Z,89.5
2024-03-12T02:19:11.025Z,89.5
2024-03-12T02:20:17.301Z,89.5
2024-03-12T02:21:22.591Z,89.5
2024-03-12T02:22:28.871Z,89
2024-03-12T02:23:35.136Z,89
2024-03-12T02:24:41.406Z,89
2024-03-12T02:25:47.671Z,88.5
2024-03-12T02:26:53.947Z,88.5
2024-03-12T02:28:00.237Z,88.5
2024-03-12T02:29:06.492Z,88.5
2024-03-12T02:30:12.772Z,88.5
2024-03-12T02:31:19.029Z,88.5
2024-03-12T02:32:25.316Z,89
2024-03-12T02:33:31.576Z,89
2024-03-12T02:34:37.853Z,89
2024-03-12T02:35:43.131Z,89
2024-03-12T02:36:49.411Z,89
2024-03-12T02:37:55.682Z,89
2024-03-12T02:39:01.956Z,89.5
2024-03-12T02:40:08.232Z,89.5
2024-03-12T02:41:14.537Z,89
2024-03-12T02:42:20.770Z,89.5
2024-03-12T02:43:27.041Z,89.5
2024-03-12T02:44:33.386Z,89.5
2024-03-12T02:45:39.578Z,90
2024-03-12T02:46:45.897Z,89.5
2024-03-12T02:47:52.120Z,89.5
2024-03-12T02:48:58.388Z,89.5
2024-03-12T02:50:03.685Z,89
2024-03-12T02:51:09.958Z,89
2024-03-12T02:52:16.220Z,89
2024-03-12T02:53:22.513Z,89
2024-03-12T02:54:28.830Z,89
2024-03-12T02:55:35.076Z,89
2024-03-12T02:56:40.361Z,89.5
2024-03-12T02:57:46.620Z,89.5
2024-03-12T02:58:52.885Z,89.5
2024-03-12T02:59:59.156Z,89.5
2024-03-12T03:01:05.436Z,90
2024-03-12T03:02:11.694Z,89.5
2024-03-12T03:03:18.018Z,89.5
2024-03-12T03:04:24.243Z,89.5
2024-03-12T03:05:30.513Z,89.5
2024-03-12T03:06:36.784Z,89.5
2024-03-12T03:07:43.068Z,90
2024-03-12T03:08:49.330Z,89.5
2024-03-12T03:09:55.600Z,89.5
2024-03-12T03:11:00.896Z,89.5
2024-03-12T03:12:07.164Z,90
2024-03-12T03:13:13.646Z,90
2024-03-12T03:14:19.697Z,90
2024-03-12T03:15:25.974Z,90
2024-03-12T03:16:32.247Z,90
2024-03-12T03:17:38.536Z,90.5
2024-03-12T03:18:44.788Z,90.5
2024-03-12T03:19:51.069Z,90
2024-03-12T03:20:57.329Z,90.5
2024-03-12T03:22:03.606Z,90.5
2024-03-12T03:23:09.868Z,90.5
2024-03-12T03:24:16.142Z,90.5
2024-03-12T03:25:21.437Z,90.5
2024-03-12T03:26:27.711Z,90.5
2024-03-12T03:27:33.981Z,90.5
2024-03-12T03:28:40.261Z,90.5
2024-03-12T03:29:46.532Z,91
2024-03-12T03:30:52.786Z,91
2024-03-12T03:31:59.067Z,90.5
2024-03-12T03:33:05.338Z,90.5
2024-03-12T03:34:11.623Z,90.5
2024-03-12T03:35:17.878Z,90.5
2024-03-12T03:36:24.151Z,91
2024-03-12T03:37:30.427Z,91
2024-03-12T03:38:36.693Z,91
2024-03-12T03:39:41.990Z,91
2024-03-12T03:40:48.259Z,91
2024-03-12T03:41:54.533Z,91
2024-03-12T03:43:00.800Z,91
2024-03-12T03:44:07.074Z,91
2024-03-12T03:45:13.349Z,91.5
2024-03-12T03:46:19.626Z,91.5
2024-03-12T03:47:25.893Z,91.5
2024-03-12T03:48:32.164Z,91.5
2024-03-12T03:49:38.482Z,91.5
2024-03-12T03:50:44.695Z,91.5
2024-03-12T03:51:50.991Z,91.5
2024-03-12T03:52:57.246Z,92
2024-03-12T03:54:02.536Z,92
2024-03-12T03:55:08.812Z,92
2024-03-12T03:56:15.085Z,92
2024-03-12T03:57:21.350Z,92
2024-03-12T03:58:27.633Z,92
2024-03-12T03:59:33.895Z,92.5
2024-03-12T04:00:40.160Z,92
2024-03-12T04:01:46.441Z,92
2024-03-12T04:02:52.713Z,92.5
2024-03-12T04:03:58.983Z,92.5
2024-03-12T04:05:05.297Z,92.5
2024-03-12T04:06:11.529Z,92
2024-03-12T04:07:17.799Z,92
2024-03-12T04:08:23.090Z,92
2024-03-12T04:09:29.355Z,92
2024-03-12T04:10:35.632Z,91.5
2024-03-12T04:11:41.905Z,91.5
2024-03-12T04:12:48.218Z,92
2024-03-12T04:13:54.447Z,92.5
2024-03-12T04:15:00.732Z,92.5
2024-03-12T04:16:06.997Z,92.5
2024-03-12T04:17:13.253Z,92.5
2024-03-12T04:18:19.528Z,92.5
2024-03-12T04:19:25.804Z,92.5
2024-03-12T04:20:32.232Z,92.5
2024-03-12T04:21:38.345Z,92.5
2024-03-12T04:22:43.644Z,92.5
2024-03-12T04:23:49.913Z,92.5
2024-03-12T04:24:56.182Z,92.5
2024-03-12T04:26:02.499Z,92.5
2024-03-12T04:27:08.786Z,92.5
2024-03-12T04:28:14.993Z,92
2024-03-12T04:29:21.269Z,92
2024-03-12T04:30:27.526Z,92.5
2024-03-12T04:31:33.813Z,92.5
2024-03-12T04:32:40.096Z,92.5
2024-03-12T04:33:46.353Z,92.5
2024-03-12T04:34:52.623Z,92.5
2024-03-12T04:35:58.895Z,92.5
2024-03-12T04:37:04.182Z,92
2024-03-12T04:38:10.456Z,92
2024-03-12T04:39:16.747Z,92
2024-03-12T04:40:23.005Z,92
2024-03-12T04:41:29.276Z,92
2024-03-12T04:42:35.549Z,92.5
2024-03-12T04:43:41.854Z,92.5
2024-03-12T04:44:48.094Z,92.5
2024-03-12T04:45:54.401Z,92.5
2024-03-12T04:47:00.638Z,92.5
2024-03-12T04:48:06.915Z,92.5
2024-03-12T04:49:13.173Z,92.5
2024-03-12T04:50:19.455Z,92.5
2024-03-12T04:51:24.724Z,92.5
2024-03-12T04:52:31.003Z,92.5
2024-03-12T04:53:37.280Z,92.5
2024-03-12T04:54:43.545Z,92.5
2024-03-12T04:55:49.821Z,92.5
2024-03-12T04:56:56.204Z,92.5
2024-03-12T04:58:02.366Z,92.5
2024-03-12T04:59:08.632Z,92.5
2024-03-12T05:00:14.913Z,92.5
2024-03-12T05:01:21.173Z,92.5
2024-03-12T05:02:27.452Z,92.5
2024-03-12T05:03:33.721Z,92.5
2024-03-12T05:04:40.035Z,93
2024-03-12T05:05:45.297Z,93
2024-03-12T05:06:51.558Z,93
2024-03-12T05:07:57.845Z,93
2024-03-12T05:09:04.099Z,92.5
2024-03-12T05:10:10.383Z,93
2024-03-12T05:11:16.648Z,93
2024-03-12T05:12:22.908Z,93
2024-03-12T05:13:29.192Z,93
2024-03-12T05:14:35.465Z,92.5
2024-03-12T05:15:41.729Z,93
2024-03-12T05:16:48.007Z,93
2024-03-12T05:17:54.292Z,93
2024-03-12T05:19:00.554Z,93
2024-03-12T05:20:05.840Z,93
2024-03-12T05:21:12.165Z,93
2024-03-12T05:22:18.386Z,93
2024-03-12T05:23:24.642Z,93
2024-03-12T05:24:30.920Z,93
2024-03-12T05:25:37.194Z,93
2024-03-12T05:26:43.496Z,93
2024-03-12T05:27:49.728Z,92.5
2024-03-12T05:28:56.001Z,92.5
2024-03-12T05:30:02.295Z,92.5
2024-03-12T05:31:08.555Z,92.5
2024-03-12T05:32:14.825Z,92.5
2024-03-12T05:33:21.112Z,92.5
2024-03-12T05:34:26.465Z,92.5
2024-03-12T05:35:32.664Z,92.5
2024-03-12T05:36:38.931Z,92.5
2024-03-12T05:37:45.193Z,92
2024-03-12T05:38:51.468Z,92
2024-03-12T05:39:57.733Z,92
2024-03-12T05:41:04.012Z,92
2024-03-12T05:42:10.287Z,92
2024-03-12T05:43:16.561Z,92
2024-03-12T05:44:22.831Z,92
2024-03-12T05:45:29.149Z,92.5
2024-03-12T05:46:35.385Z,92.5
2024-03-12T05:47:41.643Z,92.5
2024-03-12T05:48:46.933Z,92
2024-03-12T05:49:53.217Z,92
2024-03-12T05:50:59.478Z,92
2024-03-12T05:52:05.770Z,92
2024-03-12T05:53:12.018Z,92
2024-03-12T05:54:18.298Z,92
2024-03-12T05:55:24.565Z,92
2024-03-12T05:56:30.833Z,92
2024-03-12T05:57:37.108Z,92
2024-03-12T05:58:43.378Z,92
2024-03-12T05:59:49.653Z,92
2024-03-12T06:00:55.918Z,92
2024-03-12T06:02:02.205Z,92.5
2024-03-12T06:03:08.471Z,92.5
2024-03-12T06:04:14.734Z,92.5
2024-03-12T06:05:20.056Z,92.5
2024-03-12T06:06:26.297Z,92.5
2024-03-12T06:07:32.571Z,92.5
2024-03-12T06:08:38.839Z,92.5
2024-03-12T06:09:45.112Z,92.5
2024-03-12T06:10:51.382Z,92.5
2024-03-12T06:11:57.660Z,92
2024-03-12T06:13:03.922Z,92
2024-03-12T06:14:10.236Z,92
2024-03-12T06:15:16.477Z,92
2024-03-12T06:16:22.738Z,92
2024-03-12T06:17:29.003Z,92
2024-03-12T06:18:35.293Z,92
2024-03-12T06:19:40.613Z,92
2024-03-12T06:20:46.846Z,92
2024-03-12T06:21:53.138Z,92
2024-03-12T06:22:59.393Z,92
2024-03-12T06:24:05.663Z,92.5
2024-03-12T06:25:11.934Z,92.5
2024-03-12T06:26:18.204Z,92.5
2024-03-12T06:27:24.492Z,92.5
2024-03-12T06:28:30.754Z,92.5
2024-03-12T06:29:37.021Z,92
2024-03-12T06:30:43.281Z,92
2024-03-12T06:31:49.560Z,92
2024-03-12T06:32:55.833Z,92
2024-03-12T06:34:01.124Z,91.5
2024-03-12T06:35:07.395Z,91.5
2024-03-12T06:36:13.669Z,91.5
2024-03-12T06:37:20.048Z,91.5
2024-03-12T06:38:25.228Z,91.5
2024-03-12T06:39:31.505Z,91.5
2024-03-12T06:40:37.836Z,91.5
2024-03-12T06:41:44.175Z,91.5
2024-03-12T06:42:50.324Z,91
2024-03-12T06:43:56.631Z,91
2024-03-12T06:45:02.861Z,91
2024-03-12T06:46:09.143Z,91
2024-03-12T06:47:15.407Z,90.5
2024-03-12T06:48:21.711Z,90.5
2024-03-12T06:49:27.952Z,90.5
2024-03-12T06:50:34.218Z,91
2024-03-12T06:51:40.499Z,90.5
2024-03-12T06:52:45.784Z,90.5
2024-03-12T06:53:52.115Z,90.5
2024-03-12T06:54:58.331Z,90.5
2024-03-12T06:56:04.585Z,90.5
2024-03-12T06:57:10.870Z,90.5
2024-03-12T06:58:17.153Z,90.5
2024-03-12T06:59:23.406Z,90.5
2024-03-12T07:00:29.707Z,90.5
2024-03-12T07:01:35.958Z,90.5
2024-03-12T07:02:42.225Z,90.5
2024-03-12T07:03:48.493Z,90.5
2024-03-12T07:04:54.798Z,90
2024-03-12T07:06:01.032Z,90.5
2024-03-12T07:07:07.308Z,90
2024-03-12T07:08:12.671Z,90
2024-03-12T07:09:18.878Z,90
2024-03-12T07:10:25.146Z,90
2024-03-12T07:11:31.484Z,90
2024-03-12T07:12:37.696Z,90
2024-03-12T07:13:43.963Z,90
2024-03-12T07:14:50.244Z,90
2024-03-12T07:15:56.500Z,90
2024-03-12T07:17:02.788Z,89.5
2024-03-12T07:18:09.056Z,90
2024-03-12T07:19:15.330Z,89.5
2024-03-12T07:20:21.591Z,89.5
2024-03-12T07:21:27.855Z,89.5
2024-03-12T07:22:33.151Z,89.5
2024-03-12T07:23:39.413Z,89
2024-03-12T07:24:45.696Z,89
2024-03-12T07:25:51.973Z,89
2024-03-12T07:26:58.260Z,89
2024-03-12T07:28:04.511Z,88.5
2024-03-12T07:29:10.849Z,89
2024-03-12T07:30:17.066Z,88.5
2024-03-12T07:31:23.368Z,88.5
2024-03-12T07:32:29.598Z,88
2024-03-12T07:33:35.862Z,88
2024-03-12T07:34:42.144Z,88
2024-03-12T07:35:48.567Z,88
2024-03-12T07:36:53.704Z,88
2024-03-12T07:37:59.981Z,88
2024-03-12T07:39:06.249Z,88
2024-03-12T07:40:12.608Z,88
2024-03-12T07:41:18.796Z,88
2024-03-12T07:42:25.080Z,88
2024-03-12T07:43:31.332Z,88
2024-03-12T07:44:37.602Z,87.5
2024-03-12T07:45:43.883Z,87.5
2024-03-12T07:46:50.159Z,87.5
2024-03-12T07:47:56.439Z,87.5
2024-03-12T07:49:02.691Z,88
2024-03-12T07:50:08.974Z,88
2024-03-12T07:51:14.255Z,88
2024-03-12T07:52:20.527Z,88
2024-03-12T07:53:26.801Z,88
2024-03-12T07:54:33.079Z,87.5
2024-03-12T07:55:39.539Z,87.5
2024-03-12T07:56:45.603Z,87
2024-03-12T07:57:51.884Z,87
2024-03-12T07:58:58.203Z,87
2024-03-12T08:00:04.421Z,87
2024-03-12T08:01:10.723Z,87
2024-03-12T08:02:16.973Z,87
2024-03-12T08:03:23.239Z,87
2024-03-12T08:04:29.557Z,87
2024-03-12T08:05:34.808Z,87
2024-03-12T08:06:41.072Z,87
2024-03-12T08:07:47.364Z,87
2024-03-12T08:08:53.605Z,87
2024-03-12T08:09:59.890Z,87
2024-03-12T08:11:06.165Z,87
2024-03-12T08:12:12.683Z,87
2024-03-12T08:13:18.918Z,87
2024-03-12T08:14:24.980Z,87
2024-03-12T08:15:31.309Z,86.5
2024-03-12T08:16:37.522Z,86.5
2024-03-12T08:17:43.906Z,86.5
2024-03-12T08:18:50.085Z,86.5
2024-03-12T08:19:55.455Z,86.5
2024-03-12T08:21:01.701Z,85.5
2024-03-12T08:22:07.902Z,85.5
2024-03-12T08:23:14.161Z,85.5
2024-03-12T08:24:20.441Z,85.5
2024-03-12T08:25:26.798Z,85.5
2024-03-12T08:26:32.987Z,85.5
2024-03-12T08:27:39.262Z,85
2024-03-12T08:28:45.532Z,85
2024-03-12T08:29:51.869Z,85
2024-03-12T08:30:58.061Z,84.5
2024-03-12T08:32:04.342Z,84.5
2024-03-12T08:33:10.661Z,85
2024-03-12T08:34:16.884Z,85
2024-03-12T08:35:22.257Z,85
2024-03-12T08:36:28.429Z,84.5
2024-03-12T08:37:34.706Z,84.5
2024-03-12T08:38:40.992Z,84.5
2024-03-12T08:39:47.401Z,84.5
2024-03-12T08:40:53.540Z,84
2024-03-12T08:41:59.828Z,83.5
2024-03-12T08:43:06.077Z,83.5
2024-03-12T08:44:12.463Z,83
2024-03-12T08:45:18.617Z,83.5
2024-03-12T08:46:24.897Z,84
2024-03-12T08:47:31.228Z,84
2024-03-12T08:48:37.443Z,83
2024-03-12T08:49:42.786Z,83
2024-03-12T08:50:49.000Z,82.5
2024-03-12T08:51:55.274Z,82.5
2024-03-12T08:53:01.557Z,83
2024-03-12T08:54:07.837Z,82.5
2024-03-12T08:55:14.086Z,82.5
2024-03-12T08:56:20.403Z,83
2024-03-12T08:57:26.763Z,83
2024-03-12T08:58:32.899Z,83
2024-03-12T08:59:39.230Z,83
2024-03-12T09:00:45.449Z,82.5
2024-03-12T09:01:51.715Z,82.5
2024-03-12T09:02:58.370Z,82.5
2024-03-12T09:04:03.275Z,81.5
2024-03-12T09:05:09.562Z,81.5
2024-03-12T09:06:15.882Z,82
2024-03-12T09:07:22.117Z,82
2024-03-12T09:08:28.359Z,82.5
2024-03-12T09:09:34.633Z,81.5
2024-03-12T09:10:40.904Z,81
2024-03-12T09:11:47.271Z,81.5
2024-03-12T09:12:53.452Z,81.5
2024-03-12T09:13:59.871Z,82
2024-03-12T09:15:06.047Z,81
2024-03-12T09:16:12.253Z,81
2024-03-12T09:17:18.587Z,81.5
2024-03-12T09:18:23.823Z,82.5
2024-03-12T09:19:30.097Z,82.5
2024-03-12T09:20:36.392Z,83
2024-03-12T09:21:42.675Z,81.5
2024-03-12T09:22:49.021Z,81
2024-03-12T09:23:55.177Z,80.5
2024-03-12T09:25:01.447Z,80.5
2024-03-12T09:26:07.824Z,81.5
2024-03-12T09:27:14.259Z,81
2024-03-12T09:28:20.465Z,81.5
2024-03-12T09:29:26.561Z,80.5
2024-03-12T09:30:33.015Z,80.5
2024-03-12T09:31:39.174Z,80.5
2024-03-12T09:32:45.554Z,80
2024-03-12T09:33:50.648Z,79.5
2024-03-12T09:34:56.973Z,79.5
2024-03-12T09:36:03.205Z,78.5
2024-03-12T09:37:09.470Z,78
2024-03-12T09:38:15.785Z,77.5
2024-03-12T09:39:21.991Z,77
2024-03-12T09:40:28.289Z,77
2024-03-12T09:41:34.580Z,77.5
2024-03-12T09:42:40.835Z,78
2024-03-12T09:43:47.112Z,78.5
2024-03-12T09:44:53.446Z,77
2024-03-12T09:45:59.643Z,77
2024-03-12T09:47:05.991Z,77.5
2024-03-12T09:48:11.211Z,77.5
2024-03-12T09:49:17.541Z,77.5
2024-03-12T09:50:23.784Z,78
2024-03-12T09:51:30.048Z,77
2024-03-12T09:52:36.306Z,78
2024-03-12T09:53:42.545Z,78
2024-03-12T09:54:48.833Z,78.5
2024-03-12T09:55:55.189Z,78.5
2024-03-12T09:57:01.368Z,78
2024-03-12T09:58:07.619Z,77.5
2024-03-12T09:59:13.895Z,77.5
2024-03-12T10:00:20.172Z,77
2024-03-12T10:01:26.550Z,76
2024-03-12T10:02:31.726Z,76
2024-03-12T10:03:37.999Z,76
2024-03-12T10:04:44.272Z,76
2024-03-12T10:05:50.561Z,76
2024-03-12T10:06:56.820Z,76.5
2024-03-12T10:08:03.092Z,75
2024-03-12T10:09:09.359Z,76.5
2024-03-12T10:10:15.627Z,74.5
2024-03-12T10:11:21.913Z,74.5
2024-03-12T10:12:28.223Z,74.5
2024-03-12T10:13:34.468Z,73.5
2024-03-12T10:14:40.716Z,73
2024-03-12T10:15:46.996Z,73.5
2024-03-12T10:16:52.339Z,74
2024-03-12T10:17:58.549Z,73.5
2024-03-12T10:19:04.841Z,74.5
2024-03-12T10:20:10.126Z,73.5
2024-03-12T10:21:16.426Z,73.5
2024-03-12T10:22:22.661Z,74
2024-03-12T10:23:28.937Z,74
2024-03-12T10:24:35.205Z,75
2024-03-12T10:25:41.470Z,75
2024-03-12T10:26:47.742Z,75
2024-03-12T10:27:54.066Z,75
2024-03-12T10:29:00.334Z,74.5
2024-03-12T10:30:06.559Z,75
2024-03-12T10:31:12.827Z,74
2024-03-12T10:32:19.099Z,74.5
2024-03-12T10:33:25.473Z,75.5
2024-03-12T10:34:30.729Z,74.5
2024-03-12T10:35:36.929Z,74.5
2024-03-12T10:36:43.206Z,75
2024-03-12T10:37:49.478Z,75
2024-03-12T10:38:55.749Z,74.5
2024-03-12T10:40:02.029Z,74.5
2024-03-12T10:41:08.283Z,74
2024-03-12T10:42:14.569Z,74
2024-03-12T10:43:20.833Z,73
2024-03-12T10:44:27.117Z,74
2024-03-12T10:45:33.375Z,74
2024-03-12T10:46:39.655Z,73
2024-03-12T10:47:45.924Z,73.5
2024-03-12T10:48:51.227Z,73
2024-03-12T10:49:57.602Z,73
2024-03-12T10:51:03.751Z,74
2024-03-12T10:52:10.027Z,74
2024-03-12T10:53:16.301Z,73.5
2024-03-12T10:54:22.560Z,73
2024-03-12T10:55:28.848Z,73
2024-03-12T10:56:35.117Z,73.5
2024-03-12T10:57:41.385Z,74
2024-03-12T10:58:47.657Z,74
2024-03-12T10:59:53.933Z,74.5
2024-03-12T11:01:00.188Z,74.5
2024-03-12T11:02:06.471Z,75.5
2024-03-12T11:03:12.744Z,75.5
2024-03-12T11:04:18.034Z,74.5
2024-03-12T11:05:24.289Z,75
2024-03-12T11:06:30.672Z,74.5
2024-03-12T11:07:36.847Z,75
2024-03-12T11:08:43.116Z,75
2024-03-12T11:09:49.405Z,74.5
2024-03-12T11:10:55.658Z,74.5
2024-03-12T11:12:01.944Z,73.5
2024-03-12T11:13:08.214Z,74
2024-03-12T11:14:14.471Z,74.5
2024-03-12T11:15:20.768Z,74.5
2024-03-12T11:16:27.016Z,74
2024-03-12T11:17:33.294Z,74
2024-03-12T11:18:38.576Z,73.5
2024-03-12T11:19:44.852Z,74
2024-03-12T11:20:51.118Z,74
2024-03-12T11:21:57.380Z,74.5
2024-03-12T11:23:03.659Z,75
2024-03-12T11:24:09.929Z,75
2024-03-12T11:25:16.197Z,73.5
2024-03-12T11:26:22.476Z,73.5
2024-03-12T11:27:28.773Z,73.5
2024-03-12T11:28:35.025Z,73.5
2024-03-12T11:29:41.290Z,73
2024-03-12T11:30:47.563Z,73
2024-03-12T11:31:53.829Z,73.5
2024-03-12T11:32:59.129Z,73.5
2024-03-12T11:34:05.405Z,73
2024-03-12T11:35:11.662Z,72.5
2024-03-12T11:36:17.951Z,72.5
2024-03-12T11:37:24.213Z,72.5
2024-03-12T11:38:30.482Z,72
2024-03-12T11:39:36.749Z,72.5
2024-03-12T11:40:43.027Z,71.5
2024-03-12T11:41:49.290Z,71.5
2024-03-12T11:42:55.560Z,72.5
2024-03-12T11:44:01.934Z,72
2024-03-12T11:45:08.121Z,71
2024-03-12T11:46:14.385Z,71.5
2024-03-12T11:47:20.656Z,72
2024-03-12T11:48:26.046Z,71.5
2024-03-12T11:49:32.202Z,72
2024-03-12T11:50:38.559Z,73
2024-03-12T11:51:44.750Z,72.5
2024-03-12T11:52:51.015Z,72
2024-03-12T11:53:57.294Z,73
2024-03-12T11:55:03.560Z,72
2024-03-12T11:56:09.835Z,71.5
2024-03-12T11:57:16.122Z,71.5
2024-03-12T11:58:22.384Z,72
2024-03-12T11:59:28.649Z,72.5
2024-03-12T12:00:34.921Z,72.5
2024-03-12T12:01:41.185Z,71
2024-03-12T12:02:46.786Z,71.5
2024-03-12T12:03:52.825Z,71.5
2024-03-12T12:04:59.224Z,71.5
2024-03-12T12:06:05.427Z,72
2024-03-12T12:07:11.622Z,72.5
2024-03-12T12:08:18.049Z,72.5
2024-03-12T12:09:24.119Z,72
2024-03-12T12:10:30.418Z,72.5
2024-03-12T12:11:36.941Z,73
2024-03-12T12:12:42.922Z,72.5
2024-03-12T12:13:49.191Z,72.5
2024-03-12T12:14:55.473Z,73
2024-03-12T12:16:01.898Z,72.5
2024-03-12T12:17:07.432Z,73.5
2024-03-12T12:18:13.569Z,73
2024-03-12T12:19:19.573Z,73.5
2024-03-12T12:20:26.345Z,74
2024-03-12T12:21:32.108Z,74
2024-03-12T12:22:38.380Z,72.5
2024-03-12T12:23:45.021Z,72.5
2024-03-12T12:24:51.234Z,72.5
2024-03-12T12:25:57.577Z,72
2024-03-12T12:27:03.765Z,71.5
2024-03-12T12:28:09.819Z,71
2024-03-12T12:29:16.279Z,71.5
2024-03-12T12:30:22.611Z,72
2024-03-12T12:31:27.690Z,72
2024-03-12T12:32:34.054Z,71.5
2024-03-12T12:33:40.124Z,72
2024-03-12T12:34:46.390Z,71.5
2024-03-12T12:35:52.873Z,71
2024-03-12T12:36:59.323Z,71
2024-03-12T12:38:05.533Z,71
2024-03-12T12:39:11.925Z,71
2024-03-12T12:40:17.757Z,70.5
2024-03-12T12:41:24.025Z,71
2024-03-12T12:42:30.375Z,71
2024-03-12T12:43:36.745Z,72.5
2024-03-12T12:44:42.840Z,71.5
2024-03-12T12:45:48.123Z,70.5
2024-03-12T12:46:54.739Z,71
2024-03-12T12:48:00.954Z,70
2024-03-12T12:49:07.315Z,70.5
2024-03-12T12:50:13.462Z,71
2024-03-12T12:51:19.760Z,71.5
2024-03-12T12:52:25.760Z,71
2024-03-12T12:53:32.023Z,71
2024-03-12T12:54:38.288Z,70.5
2024-03-12T12:55:44.871Z,70.5
2024-03-12T12:56:51.185Z,71.5
2024-03-12T12:57:57.434Z,70.5
2024-03-12T12:59:03.651Z,71
2024-03-12T13:00:08.963Z,71.5
2024-03-12T13:01:15.206Z,71
2024-03-12T13:02:21.628Z,72
2024-03-12T13:03:27.727Z,71
2024-03-12T13:04:34.048Z,71
2024-03-12T13:05:40.027Z,71
2024-03-12T13:06:46.714Z,70
2024-03-12T13:07:52.949Z,71
2024-03-12T13:08:59.160Z,70.5
2024-03-12T13:10:05.336Z,70
2024-03-12T13:11:11.700Z,70
2024-03-12T13:12:17.948Z,70.5
2024-03-12T13:13:24.050Z,70
2024-03-12T13:14:30.540Z,70
2024-03-12T13:15:35.490Z,69.5
2024-03-12T13:16:42.073Z,70
2024-03-12T13:17:48.351Z,69.5
2024-03-12T13:18:54.718Z,69
2024-03-12T13:20:00.868Z,69.5
2024-03-12T13:21:07.168Z,69
2024-03-12T13:22:13.482Z,68.5
2024-03-12T13:23:19.704Z,69.5
2024-03-12T13:24:26.069Z,69.5
2024-03-12T13:25:32.078Z,70
2024-03-12T13:26:38.537Z,70
2024-03-12T13:27:44.851Z,70
2024-03-12T13:28:51.200Z,69
2024-03-12T13:29:56.343Z,69.5
2024-03-12T13:31:02.312Z,69
2024-03-12T13:32:08.938Z,70
2024-03-12T13:33:15.193Z,69.5
2024-03-12T13:34:21.478Z,69.5
2024-03-12T13:35:27.764Z,69.5
2024-03-12T13:36:33.669Z,70
2024-03-12T13:37:40.144Z,69.5
2024-03-12T13:38:46.481Z,68.5
2024-03-12T13:39:52.668Z,68.5
2024-03-12T13:40:59.000Z,69
2024-03-12T13:42:05.330Z,69.5
2024-03-12T13:43:11.612Z,69.5
2024-03-12T13:44:16.847Z,69.5
2024-03-12T13:45:23.229Z,69.5
2024-03-12T13:46:29.254Z,69
2024-03-12T13:47:35.580Z,69
2024-03-12T13:48:41.875Z,69
2024-03-12T13:49:48.258Z,69.5
2024-03-12T13:50:54.502Z,69.5
2024-03-12T13:52:00.491Z,69.5
2024-03-12T13:53:07.104Z,69.5
2024-03-12T13:54:13.398Z,69.5
2024-03-12T13:55:19.626Z,70
2024-03-12T13:56:25.761Z,69.5
2024-03-12T13:57:32.052Z,70.5
2024-03-12T13:58:37.440Z,71.5
2024-03-12T13:59:43.740Z,75
2024-03-12T14:00:49.674Z,81.5
2024-03-12T14:01:55.180Z,83.5
2024-03-12T14:03:01.529Z,84
2024-03-12T14:04:07.765Z,86
2024-03-12T14:05:14.196Z,83
2024-03-12T14:06:20.396Z,86
2024-03-12T14:07:26.331Z,86
2024-03-12T14:08:32.979Z,83
2024-03-12T14:09:38.879Z,83.5
2024-03-12T14:10:45.143Z,85
2024-03-12T14:11:51.751Z,86
2024-03-12T14:12:58.054Z,83.5
2024-03-12T14:14:04.308Z,84.5
2024-03-12T14:15:10.437Z,86.5
2024-03-12T14:16:15.657Z,85
2024-03-12T14:17:21.906Z,81.5
2024-03-12T14:18:28.275Z,80.5
2024-03-12T14:19:34.527Z,82.5
2024-03-12T14:20:40.817Z,82
2024-03-12T14:21:46.979Z,82.5
2024-03-12T14:22:53.142Z,84
2024-03-12T14:23:59.681Z,83.5
2024-03-12T14:25:05.786Z,80.5
2024-03-12T14:26:12.089Z,81
2024-03-12T14:27:18.232Z,79.5
2024-03-12T14:28:24.667Z,81
2024-03-12T14:29:31.015Z,82
2024-03-12T14:30:36.224Z,81.5
2024-03-12T14:31:42.381Z,81
2024-03-12T14:32:48.811Z,81.5
2024-03-12T14:33:54.888Z,79.5
2024-03-12T14:35:01.411Z,81
2024-03-12T14:36:07.453Z,80.5
2024-03-12T14:37:14.038Z,78.5
2024-03-12T14:38:20.314Z,79.5
2024-03-12T14:39:26.562Z,80
2024-03-12T14:40:32.650Z,77.5
2024-03-12T14:41:39.171Z,77.5
2024-03-12T14:42:45.066Z,80
2024-03-12T14:43:51.664Z,79
2024-03-12T14:44:56.949Z,77
2024-03-12T14:46:03.262Z,79
2024-03-12T14:47:09.400Z,78.5
2024-03-12T14:48:15.447Z,78.5
2024-03-12T14:49:21.996Z,79
2024-03-12T14:50:27.958Z,78
2024-03-12T14:51:34.245Z,78
2024-03-12T14:52:40.878Z,77
2024-03-12T14:53:46.896Z,79
2024-03-12T14:54:53.239Z,78
2024-03-12T14:55:59.665Z,78
2024-03-12T14:57:05.906Z,75.5
2024-03-12T14:58:12.273Z,76.5
2024-03-12T14:59:17.471Z,75
2024-03-12T15:00:23.771Z,76
2024-03-12T15:01:30.024Z,77
2024-03-12T15:02:36.367Z,77.5
2024-03-12T15:03:42.668Z,77
2024-03-12T15:04:48.759Z,75
2024-03-12T15:05:55.212Z,75.5
2024-03-12T15:07:01.344Z,75.5
2024-03-12T15:08:07.807Z,77
2024-03-12T15:09:13.941Z,73.5
2024-03-12T15:10:20.207Z,75
2024-03-12T15:11:26.495Z,73.5